sensor_id;sensor_type;location;lat;lon;timestamp;temperature;humidity
3136;DHT22;1578;47.658;9.922;2023-04-03T00:00:10;4.00;93.20
3136;DHT22;1578;47.658;9.922;2023-04-03T00:02:36;3.90;92.70
3136;DHT22;1578;47.658;9.922;2023-04-03T00:05:01;3.80;90.60
3136;DHT22;1578;47.658;9.922;2023-04-03T00:07:27;3.80;90.90
3136;DHT22;1578;47.658;9.922;2023-04-03T00:09:53;3.90;90.60
3136;DHT22;1578;47.658;9.922;2023-04-03T00:12:18;3.70;89.10
3136;DHT22;1578;47.658;9.922;2023-04-03T00:14:44;3.80;88.70
3136;DHT22;1578;47.658;9.922;2023-04-03T00:17:10;3.70;89.10
3136;DHT22;1578;47.658;9.922;2023-04-03T00:19:35;3.60;88.90
3136;DHT22;1578;47.658;9.922;2023-04-03T00:22:01;3.50;86.90
3136;DHT22;1578;47.658;9.922;2023-04-03T00:24:29;3.50;89.00
3136;DHT22;1578;47.658;9.922;2023-04-03T00:26:54;3.50;89.70
3136;DHT22;1578;47.658;9.922;2023-04-03T00:29:20;3.50;85.40
3136;DHT22;1578;47.658;9.922;2023-04-03T00:31:45;3.50;85.40
3136;DHT22;1578;47.658;9.922;2023-04-03T00:34:11;3.40;85.50
3136;DHT22;1578;47.658;9.922;2023-04-03T00:36:37;3.40;81.50
3136;DHT22;1578;47.658;9.922;2023-04-03T00:39:02;3.30;81.00
3136;DHT22;1578;47.658;9.922;2023-04-03T00:41:28;3.30;83.20
3136;DHT22;1578;47.658;9.922;2023-04-03T00:43:54;3.10;80.40
3136;DHT22;1578;47.658;9.922;2023-04-03T00:46:19;3.00;82.90
3136;DHT22;1578;47.658;9.922;2023-04-03T00:48:46;2.90;79.00
3136;DHT22;1578;47.658;9.922;2023-04-03T00:51:24;2.80;79.40
3136;DHT22;1578;47.658;9.922;2023-04-03T00:53:51;2.80;83.20
3136;DHT22;1578;47.658;9.922;2023-04-03T00:56:21;2.80;82.90
3136;DHT22;1578;47.658;9.922;2023-04-03T00:58:53;2.90;80.10
3136;DHT22;1578;47.658;9.922;2023-04-03T01:01:26;2.90;79.50
3136;DHT22;1578;47.658;9.922;2023-04-03T01:03:54;2.90;81.40
3136;DHT22;1578;47.658;9.922;2023-04-03T01:06:33;2.90;77.90
3136;DHT22;1578;47.658;9.922;2023-04-03T01:09:01;3.00;77.80
3136;DHT22;1578;47.658;9.922;2023-04-03T01:11:26;2.80;81.20
3136;DHT22;1578;47.658;9.922;2023-04-03T01:13:52;2.70;78.20
3136;DHT22;1578;47.658;9.922;2023-04-03T01:16:19;2.60;77.30
3136;DHT22;1578;47.658;9.922;2023-04-03T01:18:45;2.70;78.30
3136;DHT22;1578;47.658;9.922;2023-04-03T01:26:51;2.40;77.00
3136;DHT22;1578;47.658;9.922;2023-04-03T01:29:17;2.30;78.90
3136;DHT22;1578;47.658;9.922;2023-04-03T01:34:08;2.20;83.90
3136;DHT22;1578;47.658;9.922;2023-04-03T01:36:34;2.20;82.40
3136;DHT22;1578;47.658;9.922;2023-04-03T01:39:00;2.40;79.70
3136;DHT22;1578;47.658;9.922;2023-04-03T01:41:26;2.50;79.80
3136;DHT22;1578;47.658;9.922;2023-04-03T01:43:52;2.50;77.90
3136;DHT22;1578;47.658;9.922;2023-04-03T01:46:19;2.50;77.60
3136;DHT22;1578;47.658;9.922;2023-04-03T01:48:45;2.30;80.70
3136;DHT22;1578;47.658;9.922;2023-04-03T01:51:11;2.30;80.20
3136;DHT22;1578;47.658;9.922;2023-04-03T01:53:40;2.30;80.60
3136;DHT22;1578;47.658;9.922;2023-04-03T01:56:05;2.30;81.80
3136;DHT22;1578;47.658;9.922;2023-04-03T01:58:31;2.20;79.00
3136;DHT22;1578;47.658;9.922;2023-04-03T02:00:57;2.00;81.00
3136;DHT22;1578;47.658;9.922;2023-04-03T02:03:22;1.70;84.10
3136;DHT22;1578;47.658;9.922;2023-04-03T02:05:49;1.60;86.30
3136;DHT22;1578;47.658;9.922;2023-04-03T02:08:15;1.60;87.40
3136;DHT22;1578;47.658;9.922;2023-04-03T02:10:43;1.50;87.30
3136;DHT22;1578;47.658;9.922;2023-04-03T02:13:10;1.50;88.20
3136;DHT22;1578;47.658;9.922;2023-04-03T02:15:38;1.50;90.00
3136;DHT22;1578;47.658;9.922;2023-04-03T02:18:05;1.60;86.80
3136;DHT22;1578;47.658;9.922;2023-04-03T02:20:30;1.60;88.90
3136;DHT22;1578;47.658;9.922;2023-04-03T02:22:56;1.70;86.50
3136;DHT22;1578;47.658;9.922;2023-04-03T02:25:21;1.70;83.90
3136;DHT22;1578;47.658;9.922;2023-04-03T02:27:47;1.80;81.30
3136;DHT22;1578;47.658;9.922;2023-04-03T02:30:13;1.80;82.50
3136;DHT22;1578;47.658;9.922;2023-04-03T02:32:40;1.80;82.40
3136;DHT22;1578;47.658;9.922;2023-04-03T02:35:06;1.80;81.70
3136;DHT22;1578;47.658;9.922;2023-04-03T02:37:32;1.80;80.70
3136;DHT22;1578;47.658;9.922;2023-04-03T02:39:58;1.70;82.10
3136;DHT22;1578;47.658;9.922;2023-04-03T02:42:23;1.70;78.80
3136;DHT22;1578;47.658;9.922;2023-04-03T02:44:49;1.50;81.10
3136;DHT22;1578;47.658;9.922;2023-04-03T02:47:15;1.40;81.20
3136;DHT22;1578;47.658;9.922;2023-04-03T02:49:41;1.30;84.40
3136;DHT22;1578;47.658;9.922;2023-04-03T02:52:09;1.10;85.00
3136;DHT22;1578;47.658;9.922;2023-04-03T02:54:35;1.10;87.80
3136;DHT22;1578;47.658;9.922;2023-04-03T02:57:00;1.10;88.90
3136;DHT22;1578;47.658;9.922;2023-04-03T02:59:27;1.10;88.20
3136;DHT22;1578;47.658;9.922;2023-04-03T03:01:52;1.10;86.70
3136;DHT22;1578;47.658;9.922;2023-04-03T03:04:18;1.20;86.80
3136;DHT22;1578;47.658;9.922;2023-04-03T03:06:44;1.20;87.30
3136;DHT22;1578;47.658;9.922;2023-04-03T03:09:10;1.30;86.80
3136;DHT22;1578;47.658;9.922;2023-04-03T03:11:35;1.30;86.00
3136;DHT22;1578;47.658;9.922;2023-04-03T03:14:01;1.40;87.10
3136;DHT22;1578;47.658;9.922;2023-04-03T03:16:27;1.30;86.10
3136;DHT22;1578;47.658;9.922;2023-04-03T03:18:52;1.40;86.20
3136;DHT22;1578;47.658;9.922;2023-04-03T03:21:18;1.50;86.00
3136;DHT22;1578;47.658;9.922;2023-04-03T03:23:45;1.60;85.80
3136;DHT22;1578;47.658;9.922;2023-04-03T03:26:11;1.70;83.60
3136;DHT22;1578;47.658;9.922;2023-04-03T03:28:38;1.70;84.40
3136;DHT22;1578;47.658;9.922;2023-04-03T03:31:04;1.80;83.70
3136;DHT22;1578;47.658;9.922;2023-04-03T03:33:30;1.80;83.60
3136;DHT22;1578;47.658;9.922;2023-04-03T03:35:57;1.80;77.00
3136;DHT22;1578;47.658;9.922;2023-04-03T03:38:23;1.70;81.20
3136;DHT22;1578;47.658;9.922;2023-04-03T03:40:50;1.70;80.10
3136;DHT22;1578;47.658;9.922;2023-04-03T03:43:17;1.60;81.10
3136;DHT22;1578;47.658;9.922;2023-04-03T03:45:43;1.70;82.60
3136;DHT22;1578;47.658;9.922;2023-04-03T03:48:09;1.70;80.70
3136;DHT22;1578;47.658;9.922;2023-04-03T03:50:34;1.70;82.80
3136;DHT22;1578;47.658;9.922;2023-04-03T03:53:00;1.80;82.00
3136;DHT22;1578;47.658;9.922;2023-04-03T03:55:26;1.90;82.50
3136;DHT22;1578;47.658;9.922;2023-04-03T03:57:52;1.80;84.10
3136;DHT22;1578;47.658;9.922;2023-04-03T04:00:17;1.90;85.70
3136;DHT22;1578;47.658;9.922;2023-04-03T04:02:43;1.90;83.90
3136;DHT22;1578;47.658;9.922;2023-04-03T04:05:09;1.80;85.60
3136;DHT22;1578;47.658;9.922;2023-04-03T04:07:35;1.80;81.40
3136;DHT22;1578;47.658;9.922;2023-04-03T04:10:00;1.80;84.00
3136;DHT22;1578;47.658;9.922;2023-04-03T04:12:26;1.80;85.70
3136;DHT22;1578;47.658;9.922;2023-04-03T04:14:52;1.90;85.80
3136;DHT22;1578;47.658;9.922;2023-04-03T04:17:17;2.00;82.10
3136;DHT22;1578;47.658;9.922;2023-04-03T04:19:43;2.00;83.30
3136;DHT22;1578;47.658;9.922;2023-04-03T04:22:09;2.00;85.80
3136;DHT22;1578;47.658;9.922;2023-04-03T04:24:34;1.90;86.10
3136;DHT22;1578;47.658;9.922;2023-04-03T04:27:00;2.00;85.00
3136;DHT22;1578;47.658;9.922;2023-04-03T04:29:25;2.10;83.40
3136;DHT22;1578;47.658;9.922;2023-04-03T04:31:51;2.00;83.80
3136;DHT22;1578;47.658;9.922;2023-04-03T04:34:16;1.90;84.20
3136;DHT22;1578;47.658;9.922;2023-04-03T04:36:42;2.00;86.00
3136;DHT22;1578;47.658;9.922;2023-04-03T04:39:08;1.90;85.80
3136;DHT22;1578;47.658;9.922;2023-04-03T04:41:33;2.00;84.90
3136;DHT22;1578;47.658;9.922;2023-04-03T04:44:00;1.90;83.70
3136;DHT22;1578;47.658;9.922;2023-04-03T04:46:26;2.00;86.30
3136;DHT22;1578;47.658;9.922;2023-04-03T04:48:52;2.00;86.50
3136;DHT22;1578;47.658;9.922;2023-04-03T04:51:18;2.10;84.60
3136;DHT22;1578;47.658;9.922;2023-04-03T04:53:43;2.00;84.00
3136;DHT22;1578;47.658;9.922;2023-04-03T04:56:10;2.00;85.00
3136;DHT22;1578;47.658;9.922;2023-04-03T04:58:35;2.10;87.10
3136;DHT22;1578;47.658;9.922;2023-04-03T05:01:09;2.20;84.00
3136;DHT22;1578;47.658;9.922;2023-04-03T05:03:35;2.30;80.90
3136;DHT22;1578;47.658;9.922;2023-04-03T05:06:01;2.10;81.50
3136;DHT22;1578;47.658;9.922;2023-04-03T05:08:27;2.10;83.30
3136;DHT22;1578;47.658;9.922;2023-04-03T05:10:53;2.10;85.50
3136;DHT22;1578;47.658;9.922;2023-04-03T05:13:19;2.10;84.80
3136;DHT22;1578;47.658;9.922;2023-04-03T05:15:46;2.10;86.70
3136;DHT22;1578;47.658;9.922;2023-04-03T05:18:12;2.10;84.70
3136;DHT22;1578;47.658;9.922;2023-04-03T05:20:38;2.10;84.00
3136;DHT22;1578;47.658;9.922;2023-04-03T05:23:04;2.10;85.50
3136;DHT22;1578;47.658;9.922;2023-04-03T05:25:29;2.20;82.50
3136;DHT22;1578;47.658;9.922;2023-04-03T05:27:57;2.20;84.10
3136;DHT22;1578;47.658;9.922;2023-04-03T05:30:22;2.20;84.10
3136;DHT22;1578;47.658;9.922;2023-04-03T05:32:48;2.30;83.30
3136;DHT22;1578;47.658;9.922;2023-04-03T05:35:14;2.10;82.40
3136;DHT22;1578;47.658;9.922;2023-04-03T05:37:40;2.10;86.20
3136;DHT22;1578;47.658;9.922;2023-04-03T05:40:07;2.30;84.20
3136;DHT22;1578;47.658;9.922;2023-04-03T05:42:33;2.10;82.00
3136;DHT22;1578;47.658;9.922;2023-04-03T05:44:58;2.10;85.20
3136;DHT22;1578;47.658;9.922;2023-04-03T05:47:24;2.10;85.90
3136;DHT22;1578;47.658;9.922;2023-04-03T05:49:49;2.10;87.50
3136;DHT22;1578;47.658;9.922;2023-04-03T05:52:22;2.10;86.50
3136;DHT22;1578;47.658;9.922;2023-04-03T05:54:48;2.00;87.10
3136;DHT22;1578;47.658;9.922;2023-04-03T05:57:17;2.20;88.60
3136;DHT22;1578;47.658;9.922;2023-04-03T05:59:44;2.30;87.10
3136;DHT22;1578;47.658;9.922;2023-04-03T06:02:14;2.40;86.60
3136;DHT22;1578;47.658;9.922;2023-04-03T06:04:40;2.20;83.00
3136;DHT22;1578;47.658;9.922;2023-04-03T06:07:06;2.30;86.00
3136;DHT22;1578;47.658;9.922;2023-04-03T06:09:33;2.40;83.90
3136;DHT22;1578;47.658;9.922;2023-04-03T06:11:59;2.50;83.00
3136;DHT22;1578;47.658;9.922;2023-04-03T06:14:25;2.50;82.90
3136;DHT22;1578;47.658;9.922;2023-04-03T06:16:52;2.50;83.90
3136;DHT22;1578;47.658;9.922;2023-04-03T06:19:18;2.60;79.50
3136;DHT22;1578;47.658;9.922;2023-04-03T06:21:43;2.60;79.00
3136;DHT22;1578;47.658;9.922;2023-04-03T06:24:12;2.50;79.30
3136;DHT22;1578;47.658;9.922;2023-04-03T06:26:39;2.50;81.10
3136;DHT22;1578;47.658;9.922;2023-04-03T06:29:04;2.60;78.90
3136;DHT22;1578;47.658;9.922;2023-04-03T06:31:30;2.50;79.80
3136;DHT22;1578;47.658;9.922;2023-04-03T06:33:55;2.70;80.50
3136;DHT22;1578;47.658;9.922;2023-04-03T06:36:21;2.70;79.80
3136;DHT22;1578;47.658;9.922;2023-04-03T06:38:48;2.50;81.00
3136;DHT22;1578;47.658;9.922;2023-04-03T06:41:16;2.70;80.40
3136;DHT22;1578;47.658;9.922;2023-04-03T06:43:43;2.50;80.20
3136;DHT22;1578;47.658;9.922;2023-04-03T06:46:20;2.50;82.50
3136;DHT22;1578;47.658;9.922;2023-04-03T06:48:47;2.40;82.10
3136;DHT22;1578;47.658;9.922;2023-04-03T06:51:21;2.50;82.90
3136;DHT22;1578;47.658;9.922;2023-04-03T06:53:48;2.50;81.90
3136;DHT22;1578;47.658;9.922;2023-04-03T06:56:15;2.60;82.80
3136;DHT22;1578;47.658;9.922;2023-04-03T06:58:41;2.70;82.90
3136;DHT22;1578;47.658;9.922;2023-04-03T07:01:07;2.80;78.60
3136;DHT22;1578;47.658;9.922;2023-04-03T07:03:34;2.90;80.90
3136;DHT22;1578;47.658;9.922;2023-04-03T07:06:01;3.00;80.20
3136;DHT22;1578;47.658;9.922;2023-04-03T07:08:26;3.10;77.30
3136;DHT22;1578;47.658;9.922;2023-04-03T07:10:52;3.10;80.90
3136;DHT22;1578;47.658;9.922;2023-04-03T07:13:18;3.10;78.10
3136;DHT22;1578;47.658;9.922;2023-04-03T07:15:43;3.20;79.60
3136;DHT22;1578;47.658;9.922;2023-04-03T07:18:09;3.20;74.00
3136;DHT22;1578;47.658;9.922;2023-04-03T07:20:35;3.00;74.90
3136;DHT22;1578;47.658;9.922;2023-04-03T07:23:01;3.10;80.20
3136;DHT22;1578;47.658;9.922;2023-04-03T07:25:28;3.10;79.70
3136;DHT22;1578;47.658;9.922;2023-04-03T07:27:53;3.10;77.00
3136;DHT22;1578;47.658;9.922;2023-04-03T07:30:20;3.20;78.20
3136;DHT22;1578;47.658;9.922;2023-04-03T07:32:46;3.20;77.50
3136;DHT22;1578;47.658;9.922;2023-04-03T07:35:12;3.30;77.50
3136;DHT22;1578;47.658;9.922;2023-04-03T07:37:37;3.30;75.10
3136;DHT22;1578;47.658;9.922;2023-04-03T07:40:04;3.50;76.80
3136;DHT22;1578;47.658;9.922;2023-04-03T07:42:30;3.40;72.10
3136;DHT22;1578;47.658;9.922;2023-04-03T07:44:55;3.40;74.40
3136;DHT22;1578;47.658;9.922;2023-04-03T07:47:21;3.50;75.50
3136;DHT22;1578;47.658;9.922;2023-04-03T07:49:47;3.70;74.20
3136;DHT22;1578;47.658;9.922;2023-04-03T07:52:13;3.70;74.10
3136;DHT22;1578;47.658;9.922;2023-04-03T07:54:41;3.60;71.00
3136;DHT22;1578;47.658;9.922;2023-04-03T07:57:07;3.50;71.10
3136;DHT22;1578;47.658;9.922;2023-04-03T07:59:32;3.50;75.70
3136;DHT22;1578;47.658;9.922;2023-04-03T08:01:58;3.50;70.40
3136;DHT22;1578;47.658;9.922;2023-04-03T08:04:25;3.40;72.60
3136;DHT22;1578;47.658;9.922;2023-04-03T08:06:51;3.50;76.10
3136;DHT22;1578;47.658;9.922;2023-04-03T08:09:17;3.40;73.10
3136;DHT22;1578;47.658;9.922;2023-04-03T08:11:44;3.50;74.90
3136;DHT22;1578;47.658;9.922;2023-04-03T08:14:09;3.40;73.90
3136;DHT22;1578;47.658;9.922;2023-04-03T08:16:41;3.30;76.70
3136;DHT22;1578;47.658;9.922;2023-04-03T08:19:07;3.40;77.20
3136;DHT22;1578;47.658;9.922;2023-04-03T08:21:33;3.30;74.00
3136;DHT22;1578;47.658;9.922;2023-04-03T08:23:58;3.30;74.30
3136;DHT22;1578;47.658;9.922;2023-04-03T08:26:24;3.30;75.30
3136;DHT22;1578;47.658;9.922;2023-04-03T08:28:52;3.40;74.50
3136;DHT22;1578;47.658;9.922;2023-04-03T08:31:19;3.50;71.70
3136;DHT22;1578;47.658;9.922;2023-04-03T08:33:45;3.60;66.40
3136;DHT22;1578;47.658;9.922;2023-04-03T08:36:21;3.60;72.10
3136;DHT22;1578;47.658;9.922;2023-04-03T08:38:48;3.70;72.20
3136;DHT22;1578;47.658;9.922;2023-04-03T08:41:35;3.80;70.10
3136;DHT22;1578;47.658;9.922;2023-04-03T08:44:14;3.80;70.40
3136;DHT22;1578;47.658;9.922;2023-04-03T08:51:58;3.90;65.90
3136;DHT22;1578;47.658;9.922;2023-04-03T08:54:34;3.80;67.90
3136;DHT22;1578;47.658;9.922;2023-04-03T08:57:03;3.80;68.00
3136;DHT22;1578;47.658;9.922;2023-04-03T08:59:33;3.60;67.50
3136;DHT22;1578;47.658;9.922;2023-04-03T09:02:04;3.70;71.60
3136;DHT22;1578;47.658;9.922;2023-04-03T09:04:32;3.60;67.40
3136;DHT22;1578;47.658;9.922;2023-04-03T09:07:06;3.70;65.10
3136;DHT22;1578;47.658;9.922;2023-04-03T09:09:39;3.80;70.30
3136;DHT22;1578;47.658;9.922;2023-04-03T09:12:23;3.90;67.00
3136;DHT22;1578;47.658;9.922;2023-04-03T09:15:05;4.00;68.20
3136;DHT22;1578;47.658;9.922;2023-04-03T09:20:39;4.30;63.30
3136;DHT22;1578;47.658;9.922;2023-04-03T09:23:24;4.30;62.10
3136;DHT22;1578;47.658;9.922;2023-04-03T09:25:58;4.30;59.80
3136;DHT22;1578;47.658;9.922;2023-04-03T09:28:26;4.30;61.00
3136;DHT22;1578;47.658;9.922;2023-04-03T09:30:53;4.30;62.60
3136;DHT22;1578;47.658;9.922;2023-04-03T09:33:20;4.40;57.60
3136;DHT22;1578;47.658;9.922;2023-04-03T09:35:47;4.30;57.30
3136;DHT22;1578;47.658;9.922;2023-04-03T09:38:15;4.30;58.30
3136;DHT22;1578;47.658;9.922;2023-04-03T09:40:43;4.40;57.10
3136;DHT22;1578;47.658;9.922;2023-04-03T09:43:31;4.30;56.00
3136;DHT22;1578;47.658;9.922;2023-04-03T09:46:38;4.30;58.40
3136;DHT22;1578;47.658;9.922;2023-04-03T09:49:05;4.20;56.50
3136;DHT22;1578;47.658;9.922;2023-04-03T09:51:32;4.40;59.30
3136;DHT22;1578;47.658;9.922;2023-04-03T09:53:58;4.50;56.50
3136;DHT22;1578;47.658;9.922;2023-04-03T09:56:28;4.50;56.70
3136;DHT22;1578;47.658;9.922;2023-04-03T10:04:11;4.50;55.40
3136;DHT22;1578;47.658;9.922;2023-04-03T10:06:49;4.60;58.80
3136;DHT22;1578;47.658;9.922;2023-04-03T10:09:27;4.60;53.80
3136;DHT22;1578;47.658;9.922;2023-04-03T10:12:05;4.60;54.70
3136;DHT22;1578;47.658;9.922;2023-04-03T10:14:53;4.80;57.40
3136;DHT22;1578;47.658;9.922;2023-04-03T10:20:21;4.80;50.00
3136;DHT22;1578;47.658;9.922;2023-04-03T10:23:14;4.70;51.00
3136;DHT22;1578;47.658;9.922;2023-04-03T10:25:42;4.70;52.40
3136;DHT22;1578;47.658;9.922;2023-04-03T10:28:20;4.90;52.60
3136;DHT22;1578;47.658;9.922;2023-04-03T10:44:44;5.10;48.80
3136;DHT22;1578;47.658;9.922;2023-04-03T10:47:24;5.10;46.70
3136;DHT22;1578;47.658;9.922;2023-04-03T10:55:46;5.70;45.60
3136;DHT22;1578;47.658;9.922;2023-04-03T10:58:32;5.90;45.50
3136;DHT22;1578;47.658;9.922;2023-04-03T11:01:06;5.90;46.20
3136;DHT22;1578;47.658;9.922;2023-04-03T11:03:36;6.10;42.00
3136;DHT22;1578;47.658;9.922;2023-04-03T11:06:08;6.10;36.70
3136;DHT22;1578;47.658;9.922;2023-04-03T11:08:53;6.00;33.20
3136;DHT22;1578;47.658;9.922;2023-04-03T11:11:27;6.00;33.20
3136;DHT22;1578;47.658;9.922;2023-04-03T11:14:05;6.20;32.60
3136;DHT22;1578;47.658;9.922;2023-04-03T11:16:40;6.10;33.50
3136;DHT22;1578;47.658;9.922;2023-04-03T11:19:20;6.20;29.20
3136;DHT22;1578;47.658;9.922;2023-04-03T11:24:41;6.60;34.70
3136;DHT22;1578;47.658;9.922;2023-04-03T11:27:15;6.40;28.00
3136;DHT22;1578;47.658;9.922;2023-04-03T11:29:45;6.10;26.10
3136;DHT22;1578;47.658;9.922;2023-04-03T11:32:51;6.40;35.00
3136;DHT22;1578;47.658;9.922;2023-04-03T11:35:18;6.60;28.60
3136;DHT22;1578;47.658;9.922;2023-04-03T11:37:47;6.70;30.30
3136;DHT22;1578;47.658;9.922;2023-04-03T11:43:33;6.50;31.30
3136;DHT22;1578;47.658;9.922;2023-04-03T11:45:36;6.60;28.40
3136;DHT22;1578;47.658;9.922;2023-04-03T11:50:55;6.80;28.50
3136;DHT22;1578;47.658;9.922;2023-04-03T11:53:37;6.90;27.50
3136;DHT22;1578;47.658;9.922;2023-04-03T11:58:34;7.10;28.00
3136;DHT22;1578;47.658;9.922;2023-04-03T12:08:49;6.70;26.60
3136;DHT22;1578;47.658;9.922;2023-04-03T12:11:32;6.50;27.30
3136;DHT22;1578;47.658;9.922;2023-04-03T12:16:27;6.50;28.00
3136;DHT22;1578;47.658;9.922;2023-04-03T12:22:05;6.50;28.70
3136;DHT22;1578;47.658;9.922;2023-04-03T12:32:17;6.60;32.60
3136;DHT22;1578;47.658;9.922;2023-04-03T12:43:28;6.80;26.60
3136;DHT22;1578;47.658;9.922;2023-04-03T12:48:28;6.70;28.70
3136;DHT22;1578;47.658;9.922;2023-04-03T12:50:56;6.30;22.90
3136;DHT22;1578;47.658;9.922;2023-04-03T12:53:28;6.10;24.20
3136;DHT22;1578;47.658;9.922;2023-04-03T12:56:25;6.10;25.50
3136;DHT22;1578;47.658;9.922;2023-04-03T12:58:54;6.20;26.20
3136;DHT22;1578;47.658;9.922;2023-04-03T13:01:24;6.00;24.90
3136;DHT22;1578;47.658;9.922;2023-04-03T13:03:54;6.00;29.90
3136;DHT22;1578;47.658;9.922;2023-04-03T13:06:24;6.20;26.90
3136;DHT22;1578;47.658;9.922;2023-04-03T13:08:55;6.30;31.20
3136;DHT22;1578;47.658;9.922;2023-04-03T13:11:23;6.40;26.50
3136;DHT22;1578;47.658;9.922;2023-04-03T13:14:12;6.50;26.80
3136;DHT22;1578;47.658;9.922;2023-04-03T13:16:39;6.50;26.40
3136;DHT22;1578;47.658;9.922;2023-04-03T13:19:14;6.30;25.60
3136;DHT22;1578;47.658;9.922;2023-04-03T13:21:41;6.00;26.70
3136;DHT22;1578;47.658;9.922;2023-04-03T13:24:07;6.10;28.70
3136;DHT22;1578;47.658;9.922;2023-04-03T13:26:33;6.10;27.40
3136;DHT22;1578;47.658;9.922;2023-04-03T13:29:03;6.10;27.60
3136;DHT22;1578;47.658;9.922;2023-04-03T13:31:37;6.10;24.80
3136;DHT22;1578;47.658;9.922;2023-04-03T13:34:11;5.80;25.90
3136;DHT22;1578;47.658;9.922;2023-04-03T13:36:44;6.10;25.50
3136;DHT22;1578;47.658;9.922;2023-04-03T13:41:38;6.10;26.20
3136;DHT22;1578;47.658;9.922;2023-04-03T13:44:18;5.90;22.20
3136;DHT22;1578;47.658;9.922;2023-04-03T13:46:59;5.90;26.00
3136;DHT22;1578;47.658;9.922;2023-04-03T13:49:38;6.10;26.80
3136;DHT22;1578;47.658;9.922;2023-04-03T13:52:24;6.10;22.30
3136;DHT22;1578;47.658;9.922;2023-04-03T13:54:57;6.20;23.90
3136;DHT22;1578;47.658;9.922;2023-04-03T13:57:23;6.10;25.20
3136;DHT22;1578;47.658;9.922;2023-04-03T13:59:49;6.00;24.50
3136;DHT22;1578;47.658;9.922;2023-04-03T14:02:33;6.10;24.10
3136;DHT22;1578;47.658;9.922;2023-04-03T14:05:01;6.30;23.30
3136;DHT22;1578;47.658;9.922;2023-04-03T14:07:29;6.40;22.50
3136;DHT22;1578;47.658;9.922;2023-04-03T14:09:55;6.60;24.00
3136;DHT22;1578;47.658;9.922;2023-04-03T14:12:24;6.50;24.00
3136;DHT22;1578;47.658;9.922;2023-04-03T14:14:50;6.60;23.60
3136;DHT22;1578;47.658;9.922;2023-04-03T14:17:19;6.50;22.60
3136;DHT22;1578;47.658;9.922;2023-04-03T14:19:45;6.40;23.30
3136;DHT22;1578;47.658;9.922;2023-04-03T14:22:21;6.30;22.40
3136;DHT22;1578;47.658;9.922;2023-04-03T14:24:48;6.00;23.10
3136;DHT22;1578;47.658;9.922;2023-04-03T14:27:25;6.10;24.20
3136;DHT22;1578;47.658;9.922;2023-04-03T14:29:53;6.10;23.00
3136;DHT22;1578;47.658;9.922;2023-04-03T14:32:21;6.00;22.80
3136;DHT22;1578;47.658;9.922;2023-04-03T14:34:48;5.80;22.90
3136;DHT22;1578;47.658;9.922;2023-04-03T14:37:22;6.00;23.70
3136;DHT22;1578;47.658;9.922;2023-04-03T14:39:48;6.00;23.60
3136;DHT22;1578;47.658;9.922;2023-04-03T14:42:20;6.00;23.10
3136;DHT22;1578;47.658;9.922;2023-04-03T14:44:46;6.00;26.10
3136;DHT22;1578;47.658;9.922;2023-04-03T14:47:14;6.00;25.10
3136;DHT22;1578;47.658;9.922;2023-04-03T14:49:41;5.70;23.20
3136;DHT22;1578;47.658;9.922;2023-04-03T14:52:29;5.80;26.40
3136;DHT22;1578;47.658;9.922;2023-04-03T14:54:56;5.50;24.70
3136;DHT22;1578;47.658;9.922;2023-04-03T14:57:24;5.50;26.50
3136;DHT22;1578;47.658;9.922;2023-04-03T14:59:50;5.50;24.90
3136;DHT22;1578;47.658;9.922;2023-04-03T15:02:24;5.50;25.30
3136;DHT22;1578;47.658;9.922;2023-04-03T15:04:50;5.60;26.60
3136;DHT22;1578;47.658;9.922;2023-04-03T15:07:16;5.50;26.50
3136;DHT22;1578;47.658;9.922;2023-04-03T15:09:42;5.50;25.80
3136;DHT22;1578;47.658;9.922;2023-04-03T15:12:08;5.40;26.00
3136;DHT22;1578;47.658;9.922;2023-04-03T15:14:34;5.40;26.40
3136;DHT22;1578;47.658;9.922;2023-04-03T15:16:59;5.40;26.00
3136;DHT22;1578;47.658;9.922;2023-04-03T15:19:25;5.40;26.30
3136;DHT22;1578;47.658;9.922;2023-04-03T15:21:51;5.30;26.00
3136;DHT22;1578;47.658;9.922;2023-04-03T15:24:16;5.00;25.50
3136;DHT22;1578;47.658;9.922;2023-04-03T15:26:42;4.80;28.60
3136;DHT22;1578;47.658;9.922;2023-04-03T15:29:08;4.80;28.70
3136;DHT22;1578;47.658;9.922;2023-04-03T15:31:34;4.70;29.90
3136;DHT22;1578;47.658;9.922;2023-04-03T15:33:59;4.70;29.10
3136;DHT22;1578;47.658;9.922;2023-04-03T15:36:25;4.70;28.90
3136;DHT22;1578;47.658;9.922;2023-04-03T15:38:51;4.60;29.00
3136;DHT22;1578;47.658;9.922;2023-04-03T15:41:17;4.60;31.30
3136;DHT22;1578;47.658;9.922;2023-04-03T15:43:42;4.70;30.40
3136;DHT22;1578;47.658;9.922;2023-04-03T15:46:08;4.70;30.90
3136;DHT22;1578;47.658;9.922;2023-04-03T15:48:34;4.70;30.00
3136;DHT22;1578;47.658;9.922;2023-04-03T15:51:01;4.70;32.30
3136;DHT22;1578;47.658;9.922;2023-04-03T15:53:26;4.60;31.20
3136;DHT22;1578;47.658;9.922;2023-04-03T15:55:52;4.60;29.60
3136;DHT22;1578;47.658;9.922;2023-04-03T15:58:17;4.70;33.40
3136;DHT22;1578;47.658;9.922;2023-04-03T16:00:43;4.80;32.20
3136;DHT22;1578;47.658;9.922;2023-04-03T16:03:16;4.80;31.90
3136;DHT22;1578;47.658;9.922;2023-04-03T16:05:42;4.70;31.90
3136;DHT22;1578;47.658;9.922;2023-04-03T16:08:08;4.60;32.10
3136;DHT22;1578;47.658;9.922;2023-04-03T16:10:35;4.50;30.80
3136;DHT22;1578;47.658;9.922;2023-04-03T16:13:01;4.60;33.50
3136;DHT22;1578;47.658;9.922;2023-04-03T16:15:27;4.50;33.40
3136;DHT22;1578;47.658;9.922;2023-04-03T16:17:53;4.60;35.40
3136;DHT22;1578;47.658;9.922;2023-04-03T16:20:20;4.60;31.40
3136;DHT22;1578;47.658;9.922;2023-04-03T16:22:47;4.60;34.00
3136;DHT22;1578;47.658;9.922;2023-04-03T16:25:13;4.70;33.80
3136;DHT22;1578;47.658;9.922;2023-04-03T16:27:39;4.70;31.80
3136;DHT22;1578;47.658;9.922;2023-04-03T16:30:05;4.70;29.70
3136;DHT22;1578;47.658;9.922;2023-04-03T16:32:32;4.50;33.90
3136;DHT22;1578;47.658;9.922;2023-04-03T16:34:58;4.50;31.60
3136;DHT22;1578;47.658;9.922;2023-04-03T16:37:24;4.50;33.50
3136;DHT22;1578;47.658;9.922;2023-04-03T16:39:50;4.50;31.00
3136;DHT22;1578;47.658;9.922;2023-04-03T16:42:16;4.70;32.50
3136;DHT22;1578;47.658;9.922;2023-04-03T16:44:41;4.50;31.50
3136;DHT22;1578;47.658;9.922;2023-04-03T16:47:07;4.50;32.40
3136;DHT22;1578;47.658;9.922;2023-04-03T16:49:34;4.40;31.80
3136;DHT22;1578;47.658;9.922;2023-04-03T16:52:01;4.30;29.90
3136;DHT22;1578;47.658;9.922;2023-04-03T16:54:27;4.40;33.10
3136;DHT22;1578;47.658;9.922;2023-04-03T16:56:53;4.40;33.70
3136;DHT22;1578;47.658;9.922;2023-04-03T16:59:19;4.40;31.10
3136;DHT22;1578;47.658;9.922;2023-04-03T17:01:44;4.40;31.90
3136;DHT22;1578;47.658;9.922;2023-04-03T17:04:10;4.50;31.80
3136;DHT22;1578;47.658;9.922;2023-04-03T17:06:36;4.40;33.30
3136;DHT22;1578;47.658;9.922;2023-04-03T17:09:02;4.30;33.20
3136;DHT22;1578;47.658;9.922;2023-04-03T17:11:28;4.20;33.10
3136;DHT22;1578;47.658;9.922;2023-04-03T17:13:54;4.10;30.20
3136;DHT22;1578;47.658;9.922;2023-04-03T17:16:20;4.10;33.10
3136;DHT22;1578;47.658;9.922;2023-04-03T17:18:46;4.00;32.90
3136;DHT22;1578;47.658;9.922;2023-04-03T17:21:13;4.10;33.00
3136;DHT22;1578;47.658;9.922;2023-04-03T17:23:40;4.10;36.00
3136;DHT22;1578;47.658;9.922;2023-04-03T17:26:07;4.00;33.20
3136;DHT22;1578;47.658;9.922;2023-04-03T17:28:33;3.90;32.90
3136;DHT22;1578;47.658;9.922;2023-04-03T17:31:00;3.90;32.90
3136;DHT22;1578;47.658;9.922;2023-04-03T17:33:27;3.80;32.80
3136;DHT22;1578;47.658;9.922;2023-04-03T17:36:00;3.70;33.70
3136;DHT22;1578;47.658;9.922;2023-04-03T17:38:30;3.70;34.20
3136;DHT22;1578;47.658;9.922;2023-04-03T17:41:00;3.80;33.40
3136;DHT22;1578;47.658;9.922;2023-04-03T17:43:27;3.70;33.80
3136;DHT22;1578;47.658;9.922;2023-04-03T17:45:53;3.80;33.90
3136;DHT22;1578;47.658;9.922;2023-04-03T17:48:19;3.60;33.60
3136;DHT22;1578;47.658;9.922;2023-04-03T17:50:45;3.60;35.50
3136;DHT22;1578;47.658;9.922;2023-04-03T17:53:11;3.50;34.20